South Base, Georgia
Current Conditions -  °F | °C
As of 3:58 PM on Thursday 23 Oct 2014 (Local Time) from KWRB Reporting Station
Clear Clear  
Wind Chill: 72°   Ceiling: Unl
Heat Index: 72°   Visibility: 10mi
Dew Point: 43°   Wind: 6mph
Humidity: 35%   Direction: 320°NW
Pressure: 30.03"   Gusts: NA
Location:  32.6187°N, 83.5735°W
Report Text: KWRB 231958Z AUTO 32005KT 10SM CLR 22/06 A3003 RMK AO2 SLP171 T02210060
Loading
Personal Weather Stations






























Interactive Weather Map
Tropical Storm Tracking
New forecast layout! Learn more

10-Day Weather Forecast

Advertisements
Track Severe Weather on mobile